Eizo Maru — JD2944 — position and weather

sailwx.info

Track history (hours):
 
Tides and Currents Weather Stations Pressure Air Temp Water Temp Dewpoint Dewpoint Depression Visibility Wind Speed Wind Dir Waves Ship Positions

Eizo Maru

Last reported at 2015-May-28 13:09 UTC. Time now 2015-May-28 16:12 UTC.
Position N 34°60' E 139°33'.

Length 80 m; draft 5.3 m.

Type: Tanker. MMSI: 431000976.

Date/timePositionNaut miles runAvg speedWind from/ knotsBaromVisibWave heightAir tempDewpointWater temp
2015-May-28 13:09N 34°60' E 139°33'813.1
2015-May-28 12:33N 35°05' E 139°40'1212.3
2015-May-28 11:33N 35°16' E 139°45'1110.7
2015-May-28 10:33N 35°27' E 139°47'3 3.0
2015-May-28 09:25N 35°31' E 139°46'0 0.0
2015-May-28 08:16N 35°31' E 139°46'0 0.0
2015-May-28 06:33N 35°31' E 139°46'1110.8
2015-May-28 05:33N 35°31' E 139°60'2 2.3
2015-May-28 04:32N 35°31' E 140°02'0 0.0
2015-May-28 03:32N 35°31' E 140°02'0 0.0
2015-May-28 02:32N 35°31' E 140°02'0 0.0
2015-May-28 01:32N 35°31' E 140°02'0 0.0
2015-May-28 00:32N 35°31' E 140°02'0 0.0
2015-May-27 23:32N 35°31' E 140°02'0 0.0
2015-May-27 22:32N 35°31' E 140°02'2 2.2
2015-May-27 21:33N 35°31' E 139°60'1 0.9
2015-May-27 20:30N 35°31' E 139°59'0 0.0
2015-May-27 19:24N 35°31' E 139°59'0 0.0
2015-May-27 18:12N 35°31' E 139°59'0 0.0
2015-May-27 17:06N 35°31' E 139°59'0 0.0
2015-May-27 16:30N 35°31' E 139°59'0 0.0
2015-May-27 15:06N 35°31' E 139°59'0 0.0
2015-May-27 14:30N 35°31' E 139°59'0 0.0
2015-May-27 13:24N 35°31' E 139°59'0 0.1
2015-May-27 12:12N 35°31' E 139°59'0 0.1
2015-May-27 11:24N 35°31' E 139°59'0 0.0
2015-May-27 10:33N 35°31' E 139°59'0 0.0
2015-May-27 09:33N 35°31' E 139°59'7 6.6
2015-May-27 08:33N 35°28' E 139°51'1211.8
2015-May-27 07:33N 35°18' E 139°45'1111.5
2015-May-27 06:34N 35°06' E 139°44'1513.3
2015-May-27 05:28N 34°57' E 139°31'22910.4
2015-May-26 07:29N 34°06' E 134°59'1312.8
2015-May-26 06:30N 34°19' E 134°59'1211.8
2015-May-26 05:30N 34°27' E 135°09'1312.7
2015-May-26 04:31N 34°33' E 135°22'3 0.4
2015-May-25 21:33N 34°33' E 135°26'6 5.7
2015-May-25 20:32N 34°33' E 135°19'0 0.0
2015-May-25 19:26N 34°33' E 135°19'0 0.0
2015-May-25 18:32N 34°33' E 135°19'0 0.0
2015-May-25 16:32N 34°33' E 135°19'0 0.1
2015-May-25 15:32N 34°32' E 135°19'0 0.0
2015-May-25 14:14N 34°32' E 135°19'0 0.1
2015-May-25 13:26N 34°32' E 135°19'0 0.0
2015-May-25 12:32N 34°32' E 135°19'6 0.8
2015-May-25 05:31N 34°33' E 135°26'6 4.9
2015-May-25 04:22N 34°32' E 135°19'0 0.0
2015-May-25 03:22N 34°32' E 135°19'0 0.0
2015-May-25 02:28N 34°32' E 135°19'0 0.0
2015-May-25 01:16N 34°32' E 135°19'0 0.1
2015-May-25 00:16N 34°32' E 135°19'0 0.0
2015-May-24 23:22N 34°32' E 135°19'0 0.1
2015-May-24 22:28N 34°32' E 135°19'0 0.1
2015-May-24 21:16N 34°32' E 135°19'0 0.0
2015-May-24 20:28N 34°32' E 135°19'0 0.0
2015-May-24 19:16N 34°32' E 135°19'0 0.0
2015-May-24 18:16N 34°32' E 135°19'0 0.0
2015-May-24 17:04N 34°32' E 135°19'0 0.0
2015-May-24 16:28N 34°32' E 135°19'0 0.1
2015-May-24 15:28N 34°32' E 135°19'9 9.8
2015-May-24 14:33N 34°27' E 135°10'1413.7
2015-May-24 13:30N 34°16' E 134°59'1212.9
2015-May-24 12:33N 34°04' E 135°00'24510.9
2015-May-23 14:06N 35°13' E 139°46'711.9
2015-May-23 13:33N 35°19' E 139°43'1111.2
2015-May-23 12:33N 35°29' E 139°48'1 0.3
2015-May-23 08:33N 35°30' E 139°47'1212.1
2015-May-23 07:34N 35°19' E 139°44'1211.8
2015-May-23 06:33N 35°07' E 139°44'1413.7
2015-May-23 05:31N 34°58' E 139°31'23011.5
2015-May-22 09:30N 34°04' E 134°60'1414.8
2015-May-22 08:33N 34°18' E 134°59'1313.3
2015-May-22 07:33N 34°27' E 135°10'1313.2
2015-May-22 06:34N 34°33' E 135°24'1 0.2
2015-May-21 22:33N 34°33' E 135°26'6 4.3
2015-May-21 21:11N 34°32' E 135°19'0 0.0
2015-May-21 20:29N 34°32' E 135°19'0 0.0
2015-May-21 19:29N 34°32' E 135°19'0 0.0
2015-May-21 18:29N 34°32' E 135°19'0 0.0
2015-May-21 15:11N 34°32' E 135°19'0 0.0
2015-May-21 14:17N 34°32' E 135°19'0 0.0
2015-May-21 13:11N 34°32' E 135°19'0 0.0
2015-May-21 11:26N 34°32' E 135°19'0 0.0
2015-May-21 10:32N 34°32' E 135°19'0 0.0
2015-May-21 09:32N 34°32' E 135°19'1010.0
2015-May-21 08:32N 34°26' E 135°09'1411.5
2015-May-21 07:21N 34°15' E 134°59'911.5
2015-May-21 06:33N 34°06' E 135°00'23610.3
2015-May-20 07:33N 35°05' E 139°38'1211.8
2015-May-20 06:33N 35°16' E 139°46'1010.5
2015-May-20 05:33N 35°26' E 139°45'5 1.2
2015-May-20 01:33N 35°31' E 139°46'3 2.1
2015-May-20 00:22N 35°28' E 139°48'0 0.0
2015-May-19 23:28N 35°28' E 139°48'0 0.0
2015-May-19 22:28N 35°28' E 139°48'0 0.0
2015-May-19 21:31N 35°29' E 139°48'0 0.1
2015-May-19 20:33N 35°29' E 139°48'1111.0
2015-May-19 19:33N 35°18' E 139°45'1211.8
2015-May-19 18:33N 35°06' E 139°45'  
Track history (hours):
 
Tides and Currents Weather Stations Pressure Air Temp Water Temp Dewpoint Dewpoint Depression Visibility Wind Speed Wind Dir Waves Ship Positions

Eizo Maru

Last reported at 2015-May-28 13:09 UTC. Time now 2015-May-28 16:12 UTC.
Position N 34°60' E 139°33'.

Length 80 m; draft 5.3 m.

Type: Tanker. MMSI: 431000976.

Date/timePositionNaut miles runAvg speedWind from/ knotsBaromVisibWave heightAir tempDewpointWater temp
2015-May-28 13:09N 34°60' E 139°33'813.1
2015-May-28 12:33N 35°05' E 139°40'1212.3
2015-May-28 11:33N 35°16' E 139°45'1110.7
2015-May-28 10:33N 35°27' E 139°47'3 3.0
2015-May-28 09:25N 35°31' E 139°46'0 0.0
2015-May-28 08:16N 35°31' E 139°46'0 0.0
2015-May-28 06:33N 35°31' E 139°46'1110.8
2015-May-28 05:33N 35°31' E 139°60'2 2.3
2015-May-28 04:32N 35°31' E 140°02'0 0.0
2015-May-28 03:32N 35°31' E 140°02'0 0.0
2015-May-28 02:32N 35°31' E 140°02'0 0.0
2015-May-28 01:32N 35°31' E 140°02'0 0.0
2015-May-28 00:32N 35°31' E 140°02'0 0.0
2015-May-27 23:32N 35°31' E 140°02'0 0.0
2015-May-27 22:32N 35°31' E 140°02'2 2.2
2015-May-27 21:33N 35°31' E 139°60'1 0.9
2015-May-27 20:30N 35°31' E 139°59'0 0.0
2015-May-27 19:24N 35°31' E 139°59'0 0.0
2015-May-27 18:12N 35°31' E 139°59'0 0.0
2015-May-27 17:06N 35°31' E 139°59'0 0.0
2015-May-27 16:30N 35°31' E 139°59'0 0.0
2015-May-27 15:06N 35°31' E 139°59'0 0.0
2015-May-27 14:30N 35°31' E 139°59'0 0.0
2015-May-27 13:24N 35°31' E 139°59'0 0.1
2015-May-27 12:12N 35°31' E 139°59'0 0.1
2015-May-27 11:24N 35°31' E 139°59'0 0.0
2015-May-27 10:33N 35°31' E 139°59'0 0.0
2015-May-27 09:33N 35°31' E 139°59'7 6.6
2015-May-27 08:33N 35°28' E 139°51'1211.8
2015-May-27 07:33N 35°18' E 139°45'1111.5
2015-May-27 06:34N 35°06' E 139°44'1513.3
2015-May-27 05:28N 34°57' E 139°31'22910.4
2015-May-26 07:29N 34°06' E 134°59'1312.8
2015-May-26 06:30N 34°19' E 134°59'1211.8
2015-May-26 05:30N 34°27' E 135°09'1312.7
2015-May-26 04:31N 34°33' E 135°22'3 0.4
2015-May-25 21:33N 34°33' E 135°26'6 5.7
2015-May-25 20:32N 34°33' E 135°19'0 0.0
2015-May-25 19:26N 34°33' E 135°19'0 0.0
2015-May-25 18:32N 34°33' E 135°19'0 0.0
2015-May-25 16:32N 34°33' E 135°19'0 0.1
2015-May-25 15:32N 34°32' E 135°19'0 0.0
2015-May-25 14:14N 34°32' E 135°19'0 0.1
2015-May-25 13:26N 34°32' E 135°19'0 0.0
2015-May-25 12:32N 34°32' E 135°19'6 0.8
2015-May-25 05:31N 34°33' E 135°26'6 4.9
2015-May-25 04:22N 34°32' E 135°19'0 0.0
2015-May-25 03:22N 34°32' E 135°19'0 0.0
2015-May-25 02:28N 34°32' E 135°19'0 0.0
2015-May-25 01:16N 34°32' E 135°19'0 0.1
2015-May-25 00:16N 34°32' E 135°19'0 0.0
2015-May-24 23:22N 34°32' E 135°19'0 0.1
2015-May-24 22:28N 34°32' E 135°19'0 0.1
2015-May-24 21:16N 34°32' E 135°19'0 0.0
2015-May-24 20:28N 34°32' E 135°19'0 0.0
2015-May-24 19:16N 34°32' E 135°19'0 0.0
2015-May-24 18:16N 34°32' E 135°19'0 0.0
2015-May-24 17:04N 34°32' E 135°19'0 0.0
2015-May-24 16:28N 34°32' E 135°19'0 0.1
2015-May-24 15:28N 34°32' E 135°19'9 9.8
2015-May-24 14:33N 34°27' E 135°10'1413.7
2015-May-24 13:30N 34°16' E 134°59'1212.9
2015-May-24 12:33N 34°04' E 135°00'24510.9
2015-May-23 14:06N 35°13' E 139°46'711.9
2015-May-23 13:33N 35°19' E 139°43'1111.2
2015-May-23 12:33N 35°29' E 139°48'1 0.3
2015-May-23 08:33N 35°30' E 139°47'1212.1
2015-May-23 07:34N 35°19' E 139°44'1211.8
2015-May-23 06:33N 35°07' E 139°44'1413.7
2015-May-23 05:31N 34°58' E 139°31'23011.5
2015-May-22 09:30N 34°04' E 134°60'1414.8
2015-May-22 08:33N 34°18' E 134°59'1313.3
2015-May-22 07:33N 34°27' E 135°10'1313.2
2015-May-22 06:34N 34°33' E 135°24'1 0.2
2015-May-21 22:33N 34°33' E 135°26'6 4.3
2015-May-21 21:11N 34°32' E 135°19'0 0.0
2015-May-21 20:29N 34°32' E 135°19'0 0.0
2015-May-21 19:29N 34°32' E 135°19'0 0.0
2015-May-21 18:29N 34°32' E 135°19'0 0.0
2015-May-21 15:11N 34°32' E 135°19'0 0.0
2015-May-21 14:17N 34°32' E 135°19'0 0.0
2015-May-21 13:11N 34°32' E 135°19'0 0.0
2015-May-21 11:26N 34°32' E 135°19'0 0.0
2015-May-21 10:32N 34°32' E 135°19'0 0.0
2015-May-21 09:32N 34°32' E 135°19'1010.0
2015-May-21 08:32N 34°26' E 135°09'1411.5
2015-May-21 07:21N 34°15' E 134°59'911.5
2015-May-21 06:33N 34°06' E 135°00'23610.3
2015-May-20 07:33N 35°05' E 139°38'1211.8
2015-May-20 06:33N 35°16' E 139°46'1010.5
2015-May-20 05:33N 35°26' E 139°45'5 1.2
2015-May-20 01:33N 35°31' E 139°46'3 2.1
2015-May-20 00:22N 35°28' E 139°48'0 0.0
2015-May-19 23:28N 35°28' E 139°48'0 0.0
2015-May-19 22:28N 35°28' E 139°48'0 0.0
2015-May-19 21:31N 35°29' E 139°48'0 0.1
2015-May-19 20:33N 35°29' E 139°48'1111.0
2015-May-19 19:33N 35°18' E 139°45'1211.8
2015-May-19 18:33N 35°06' E 139°45'  

Dump ship's entire track history